Time;durP1;ratioP1;P1;durP2;ratioP2;P2;SDS_P1;SDS_P2;PMS_P1;PMS_P2;Temp;Humidity;BMP_temperature;BMP_pressure;BME280_temperature;BME280_humidity;BME280_pressure;Samples;Min_cycle;Max_cycle;Signal;HPM_P1;HPM_P2
2022/01/23 00:01:45;;;;;;;12.73;11.43;;;4.10;99.90;;;;;;5033809;28;20662;-78
2022/01/23 00:04:11;;;;;;;16.05;14.10;;;4.10;99.90;;;;;;5033461;28;20199;-78
2022/01/23 00:06:39;;;;;;;12.93;11.57;;;4.20;99.90;;;;;;5033960;28;20208;-78
2022/01/23 00:09:07;;;;;;;13.45;11.93;;;4.20;99.90;;;;;;5033401;28;20363;-78
2022/01/23 00:11:39;;;;;;;13.35;12.00;;;4.30;99.90;;;;;;5033742;28;20252;-78
2022/01/23 00:19:34;;;;;;;13.23;11.82;;;4.50;99.90;;;;;;5033007;28;20229;-78
2022/01/23 00:22:02;;;;;;;12.70;11.43;;;4.60;99.90;;;;;;5033478;28;20247;-79
2022/01/23 00:32:44;;;;;;;12.48;11.18;;;4.90;99.90;;;;;;5032880;28;20526;-79
2022/01/23 00:35:11;;;;;;;13.80;12.05;;;4.90;99.90;;;;;;5030391;28;20560;-79
2022/01/23 00:37:37;;;;;;;12.93;11.52;;;5.00;99.90;;;;;;5032843;28;20783;-78
2022/01/23 00:40:08;;;;;;;13.00;11.38;;;5.00;99.90;;;;;;5030870;28;20225;-78
2022/01/23 00:42:35;;;;;;;12.23;11.02;;;5.00;99.90;;;;;;5033182;28;20831;-79
2022/01/23 00:45:18;;;;;;;13.80;12.23;;;5.00;99.90;;;;;;5032499;28;20260;-78
2022/01/23 00:47:45;;;;;;;12.75;11.02;;;5.00;99.90;;;;;;5032480;28;20200;-78
2022/01/23 00:50:12;;;;;;;12.85;10.88;;;5.00;99.90;;;;;;5032819;28;20220;-78
2022/01/23 00:52:39;;;;;;;13.02;11.50;;;4.90;99.90;;;;;;5032502;28;21000;-79
2022/01/23 00:55:08;;;;;;;11.40;10.23;;;4.90;99.90;;;;;;5032482;28;20280;-78
2022/01/23 00:57:35;;;;;;;11.77;10.60;;;4.90;99.90;;;;;;5032433;28;20657;-79
2022/01/23 01:00:04;;;;;;;12.43;11.10;;;4.90;99.90;;;;;;5032789;28;20771;-78
2022/01/23 01:02:31;;;;;;;12.10;10.90;;;4.90;99.90;;;;;;5032348;28;20201;-78
2022/01/23 01:04:58;;;;;;;13.40;12.00;;;5.00;99.90;;;;;;5032412;28;20197;-79
2022/01/23 01:07:25;;;;;;;11.98;10.77;;;5.00;99.90;;;;;;5032412;28;20550;-78
2022/01/23 01:09:54;;;;;;;13.57;12.10;;;5.10;99.90;;;;;;5032285;28;20210;-79
2022/01/23 01:12:27;;;;;;;12.55;11.15;;;5.20;99.90;;;;;;5032291;28;20204;-78
2022/01/23 01:15:25;;;;;;;14.45;12.95;;;5.20;99.90;;;;;;5032241;28;20228;-78
2022/01/23 01:31:45;;;;;;;15.68;14.05;;;5.30;99.90;;;;;;5031565;28;20212;-78
2022/01/23 01:34:16;;;;;;;17.48;14.88;;;5.30;99.90;;;;;;5032291;28;20207;-79
2022/01/23 01:36:48;;;;;;;17.77;14.48;;;5.30;99.90;;;;;;5032388;28;20340;-78
2022/01/23 01:39:17;;;;;;;20.10;16.58;;;5.30;99.90;;;;;;5031906;28;20272;-78
2022/01/23 01:41:45;;;;;;;17.67;15.77;;;5.30;99.90;;;;;;5031368;28;20200;-78
2022/01/23 01:44:15;;;;;;;17.27;15.43;;;5.30;99.90;;;;;;5031588;28;20190;-78
2022/01/23 01:46:42;;;;;;;16.13;12.90;;;5.30;99.90;;;;;;5031994;28;20209;-78
2022/01/23 01:49:10;;;;;;;14.23;12.73;;;5.30;99.90;;;;;;5031807;28;20225;-78
2022/01/23 01:51:38;;;;;;;14.52;12.93;;;5.30;99.90;;;;;;5031448;28;20198;-78
2022/01/23 01:54:11;;;;;;;13.93;12.43;;;5.20;99.90;;;;;;5031842;28;20197;-78
2022/01/23 01:56:48;;;;;;;14.48;12.98;;;5.20;99.90;;;;;;5032005;28;20201;-78
2022/01/23 01:59:33;;;;;;;15.65;13.60;;;5.30;99.90;;;;;;5030091;28;20331;-79
2022/01/23 02:10:17;;;;;;;19.73;16.52;;;5.10;99.90;;;;;;5031599;28;20202;-78
2022/01/23 02:13:02;;;;;;;18.48;16.02;;;5.00;99.90;;;;;;5031158;28;20732;-79
2022/01/23 02:18:42;;;;;;;19.90;16.75;;;4.80;99.90;;;;;;5016648;28;20229;-79
2022/01/23 02:24:10;;;;;;;19.48;16.92;;;4.70;99.90;;;;;;5031014;28;20196;-78
2022/01/23 02:51:40;;;;;;;20.23;16.33;;;4.70;99.90;;;;;;5031123;28;20248;-78
2022/01/23 02:54:25;;;;;;;20.80;16.90;;;4.70;99.90;;;;;;5031246;28;20227;-78
2022/01/23 02:56:56;;;;;;;25.15;21.40;;;4.60;99.90;;;;;;5031250;28;20288;-78
2022/01/23 02:59:25;;;;;;;22.42;18.20;;;4.50;99.90;;;;;;5034791;28;20232;-78
2022/01/23 03:02:10;;;;;;;22.30;18.58;;;4.40;99.90;;;;;;5034235;28;20236;-78
2022/01/23 03:04:41;;;;;;;23.52;18.83;;;4.40;99.90;;;;;;5034699;28;20266;-78
2022/01/23 03:07:17;;;;;;;24.27;18.83;;;4.30;99.90;;;;;;5034640;28;20189;-78
2022/01/23 03:10:00;;;;;;;26.40;20.08;;;4.30;99.90;;;;;;5034173;28;20223;-77
2022/01/23 03:15:32;;;;;;;23.95;19.05;;;4.30;99.90;;;;;;5034088;28;20578;-78
2022/01/23 03:26:27;;;;;;;24.27;17.45;;;4.30;99.90;;;;;;5039496;28;20209;-78
2022/01/23 03:31:42;;;;;;;21.65;18.23;;;4.50;99.90;;;;;;5025689;28;20288;-78
2022/01/23 03:34:09;;;;;;;22.02;17.77;;;4.50;99.90;;;;;;5036242;28;20288;-78
2022/01/23 03:36:37;;;;;;;21.95;17.80;;;4.60;99.90;;;;;;5036544;28;20200;-77
2022/01/23 03:39:07;;;;;;;22.55;19.42;;;4.60;99.90;;;;;;5035408;28;20237;-77
2022/01/23 03:41:37;;;;;;;21.25;18.48;;;4.60;99.90;;;;;;5034373;28;20684;-77
2022/01/23 03:44:05;;;;;;;21.15;18.95;;;4.60;99.90;;;;;;5034422;28;20251;-78
2022/01/23 03:46:47;;;;;;;25.05;19.60;;;4.60;99.90;;;;;;5033648;28;20209;-78
2022/01/23 03:49:31;;;;;;;23.17;19.17;;;4.70;99.90;;;;;;5034403;28;20252;-77
2022/01/23 03:52:01;;;;;;;21.65;17.58;;;4.70;99.90;;;;;;5034169;28;20213;-78
2022/01/23 03:54:28;;;;;;;21.77;17.90;;;4.70;99.90;;;;;;5033716;28;20202;-78
2022/01/23 03:56:59;;;;;;;21.55;19.25;;;4.70;99.90;;;;;;5033680;28;20694;-78
2022/01/23 03:59:26;;;;;;;20.52;18.33;;;4.70;99.90;;;;;;5033391;28;20237;-78
2022/01/23 04:01:53;;;;;;;20.65;17.77;;;4.70;99.90;;;;;;5033776;28;20204;-78
2022/01/23 04:04:39;;;;;;;24.40;19.63;;;4.70;99.90;;;;;;5033637;28;20285;-78
2022/01/23 04:07:09;;;;;;;22.95;18.58;;;4.80;99.90;;;;;;5034085;28;20250;-78
2022/01/23 04:09:37;;;;;;;22.25;18.90;;;4.80;99.90;;;;;;5033317;28;20201;-78
2022/01/23 04:12:08;;;;;;;22.48;18.25;;;4.80;99.90;;;;;;5033784;28;20205;-78
2022/01/23 04:14:40;;;;;;;22.00;18.92;;;4.80;99.90;;;;;;5032940;28;20293;-78
2022/01/23 04:33:48;;;;;;;22.55;18.45;;;4.80;99.90;;;;;;5033191;28;20212;-78
2022/01/23 05:01:20;;;;;;;21.48;18.38;;;5.10;99.90;;;;;;5031821;28;20222;-79
2022/01/23 05:04:08;;;;;;;24.73;19.38;;;5.10;99.90;;;;;;5026379;28;20189;-77
2022/01/23 05:06:42;;;;;;;20.45;17.38;;;5.00;99.90;;;;;;5032579;28;20188;-78
2022/01/23 05:09:10;;;;;;;23.40;19.63;;;5.00;99.90;;;;;;5031861;28;20643;-78
2022/01/23 05:11:39;;;;;;;20.45;18.10;;;5.00;99.90;;;;;;5031353;28;20198;-78
2022/01/23 05:14:06;;;;;;;20.65;18.23;;;5.00;99.90;;;;;;5032138;28;20197;-78
2022/01/23 05:16:35;;;;;;;21.15;17.88;;;5.00;99.90;;;;;;5031379;28;20678;-78
2022/01/23 05:19:03;;;;;;;23.15;17.90;;;5.00;99.90;;;;;;5032332;28;20221;-78
2022/01/23 05:21:52;;;;;;;20.45;17.75;;;5.10;99.90;;;;;;5031258;28;20225;-78
2022/01/23 05:24:24;;;;;;;20.38;17.90;;;5.10;99.90;;;;;;5031723;28;20197;-78
2022/01/23 05:26:51;;;;;;;24.75;18.92;;;5.10;99.90;;;;;;5031444;28;20190;-78
2022/01/23 05:29:21;;;;;;;22.05;17.85;;;5.20;99.90;;;;;;5032106;28;20397;-77
2022/01/23 05:31:51;;;;;;;21.38;18.30;;;5.20;99.90;;;;;;5031682;28;20193;-78
2022/01/23 05:34:17;;;;;;;20.95;18.60;;;5.20;99.90;;;;;;5031654;28;20204;-78
2022/01/23 05:36:44;;;;;;;24.23;19.05;;;5.30;99.90;;;;;;5031933;28;20194;-78
2022/01/23 05:39:12;;;;;;;20.83;17.75;;;5.30;99.90;;;;;;5031335;28;20222;-78
2022/01/23 05:41:39;;;;;;;26.55;19.50;;;5.30;99.90;;;;;;5031146;28;20228;-78
2022/01/23 05:44:06;;;;;;;21.63;17.98;;;5.30;99.90;;;;;;5031845;28;20273;-78
2022/01/23 05:46:33;;;;;;;24.25;19.95;;;5.30;99.90;;;;;;5031451;28;20285;-78
2022/01/23 05:49:02;;;;;;;21.67;19.17;;;5.10;99.90;;;;;;5031439;28;20224;-78
2022/01/23 05:51:29;;;;;;;23.02;18.92;;;5.00;99.90;;;;;;5030785;28;20190;-78
2022/01/23 05:53:56;;;;;;;23.40;18.92;;;4.90;99.90;;;;;;5031296;28;20276;-78
2022/01/23 05:56:23;;;;;;;23.95;20.85;;;4.80;99.90;;;;;;5030909;28;20657;-79
2022/01/23 05:58:50;;;;;;;21.63;18.17;;;4.70;99.90;;;;;;5023651;28;20213;-78
2022/01/23 06:01:17;;;;;;;24.80;19.55;;;4.70;99.90;;;;;;5031469;28;20307;-78
2022/01/23 06:03:44;;;;;;;25.83;20.45;;;4.70;99.90;;;;;;5030854;28;21028;-77
2022/01/23 06:06:12;;;;;;;24.77;20.20;;;4.70;99.90;;;;;;5030503;28;20619;-78
2022/01/23 06:08:39;;;;;;;23.45;19.20;;;4.70;99.90;;;;;;5028433;28;20220;-78
2022/01/23 06:11:06;;;;;;;20.85;17.85;;;4.80;99.90;;;;;;5031429;28;20280;-78
2022/01/23 06:13:33;;;;;;;25.00;20.38;;;4.90;99.90;;;;;;5026143;28;20284;-78
2022/01/23 06:16:01;;;;;;;21.00;18.73;;;5.00;99.90;;;;;;5029373;28;20935;-78
2022/01/23 06:18:28;;;;;;;21.48;18.55;;;5.00;99.90;;;;;;5030814;28;20214;-78
2022/01/23 06:20:55;;;;;;;22.85;17.70;;;5.10;99.90;;;;;;5026060;28;20221;-78
2022/01/23 06:23:28;;;;;;;22.80;18.08;;;5.10;99.90;;;;;;5030235;28;20273;-78
2022/01/23 06:25:56;;;;;;;20.67;18.05;;;5.10;99.90;;;;;;5030179;28;20680;-78
2022/01/23 06:28:35;;;;;;;22.35;18.50;;;5.10;99.90;;;;;;5031068;28;20217;-78
2022/01/23 06:31:02;;;;;;;22.35;19.23;;;5.20;99.90;;;;;;5024243;28;20585;-78
2022/01/23 06:33:30;;;;;;;19.65;17.63;;;5.20;99.90;;;;;;5033753;28;20194;-78
2022/01/23 06:35:57;;;;;;;23.10;19.05;;;5.30;99.90;;;;;;5032990;28;20193;-78
2022/01/23 06:38:25;;;;;;;20.80;18.55;;;5.30;99.90;;;;;;5033004;28;20704;-78
2022/01/23 06:40:52;;;;;;;20.05;17.95;;;5.30;99.90;;;;;;5034331;28;21039;-78
2022/01/23 06:43:19;;;;;;;21.83;19.23;;;5.30;99.90;;;;;;5032551;28;20205;-78
2022/01/23 06:45:46;;;;;;;24.00;19.30;;;5.30;99.90;;;;;;5029704;28;20197;-78
2022/01/23 06:48:13;;;;;;;20.13;17.85;;;5.30;99.90;;;;;;5034639;28;20304;-78
2022/01/23 06:50:39;;;;;;;24.02;20.00;;;5.30;99.90;;;;;;5035157;28;20299;-78
2022/01/23 06:53:06;;;;;;;20.45;18.10;;;5.30;99.90;;;;;;5026939;28;20276;-78
2022/01/23 06:55:35;;;;;;;25.20;20.65;;;5.30;99.90;;;;;;5034009;28;20649;-79
2022/01/23 06:58:01;;;;;;;24.02;19.05;;;5.20;99.90;;;;;;5034694;28;20749;-78
2022/01/23 07:00:28;;;;;;;25.50;20.35;;;5.20;99.90;;;;;;5028006;28;20314;-78
2022/01/23 07:02:55;;;;;;;24.85;19.50;;;5.10;99.90;;;;;;5032780;28;20288;-78
2022/01/23 07:05:22;;;;;;;22.90;18.88;;;5.10;99.90;;;;;;5032680;28;20203;-78
2022/01/23 07:07:49;;;;;;;20.83;18.48;;;5.00;99.90;;;;;;5034433;28;20259;-78
2022/01/23 07:10:18;;;;;;;24.08;20.08;;;5.00;99.90;;;;;;5032729;28;20194;-78
2022/01/23 07:12:46;;;;;;;21.60;18.27;;;5.00;99.90;;;;;;5032957;28;20661;-78
2022/01/23 07:15:13;;;;;;;23.25;19.08;;;5.00;99.90;;;;;;5032241;28;20296;-78
2022/01/23 07:17:40;;;;;;;22.35;19.70;;;5.00;99.90;;;;;;5032661;28;20220;-77
2022/01/23 07:20:09;;;;;;;24.20;19.52;;;5.00;99.90;;;;;;5030348;28;20201;-77
2022/01/23 07:22:36;;;;;;;23.55;19.35;;;4.90;99.90;;;;;;5022998;28;20322;-78
2022/01/23 07:25:04;;;;;;;23.00;19.52;;;4.80;99.90;;;;;;5028679;28;20198;-78
2022/01/23 07:27:35;;;;;;;23.65;18.80;;;4.70;99.90;;;;;;5028690;28;20295;-78
2022/01/23 07:30:08;;;;;;;22.95;19.15;;;4.70;99.90;;;;;;5030763;28;20204;-78
2022/01/23 07:32:35;;;;;;;25.38;19.63;;;4.70;99.90;;;;;;5032045;28;20204;-78
2022/01/23 07:35:02;;;;;;;24.73;19.90;;;4.70;99.90;;;;;;5031582;28;20284;-78
2022/01/23 07:37:28;;;;;;;27.52;20.60;;;4.70;99.90;;;;;;5033273;28;20267;-78
2022/01/23 07:39:55;;;;;;;25.60;19.75;;;4.80;99.90;;;;;;5030289;28;20193;-77
2022/01/23 07:42:22;;;;;;;23.10;19.23;;;4.90;99.90;;;;;;5024665;28;20243;-78
2022/01/23 07:44:49;;;;;;;23.50;19.85;;;5.00;99.90;;;;;;5030996;28;20201;-78
2022/01/23 07:47:17;;;;;;;24.42;20.10;;;5.00;99.90;;;;;;5032213;28;20264;-77
2022/01/23 07:49:46;;;;;;;23.52;20.25;;;5.00;99.90;;;;;;5033594;28;20194;-78
2022/01/23 07:52:13;;;;;;;23.27;19.85;;;5.10;99.90;;;;;;5033039;28;20232;-78
2022/01/23 07:54:40;;;;;;;22.67;18.33;;;5.10;99.90;;;;;;5032617;28;20247;-78
2022/01/23 07:57:06;;;;;;;24.15;20.15;;;5.10;99.90;;;;;;5033614;28;20213;-78
2022/01/23 07:59:34;;;;;;;21.00;16.88;;;5.20;99.90;;;;;;5030996;28;20267;-72
2022/01/23 08:02:01;;;;;;;22.48;18.15;;;5.30;99.90;;;;;;5030717;28;20617;-73
2022/01/23 08:04:30;;;;;;;25.00;20.48;;;5.60;99.90;;;;;;5023187;28;20201;-77
2022/01/23 08:07:09;;;;;;;24.75;19.52;;;5.60;99.90;;;;;;5024552;28;20213;-78
2022/01/23 08:09:36;;;;;;;21.17;18.60;;;5.70;99.90;;;;;;5027768;28;20216;-78
2022/01/23 08:12:04;;;;;;;20.67;18.25;;;5.70;99.90;;;;;;5027752;28;20201;-78
2022/01/23 08:14:31;;;;;;;22.13;19.00;;;5.70;99.90;;;;;;5025437;28;20252;-79
2022/01/23 08:16:58;;;;;;;23.90;19.90;;;5.80;99.90;;;;;;5030105;28;20217;-79
2022/01/23 08:19:25;;;;;;;24.45;20.55;;;5.80;99.90;;;;;;5031327;28;20198;-80
2022/01/23 08:21:53;;;;;;;25.20;19.80;;;5.80;99.90;;;;;;5031981;28;20696;-79
2022/01/23 08:24:20;;;;;;;22.95;18.38;;;5.80;99.90;;;;;;5030711;28;20225;-79
2022/01/23 08:26:47;;;;;;;23.30;19.77;;;5.80;99.90;;;;;;5029790;28;20241;-80
2022/01/23 08:29:14;;;;;;;22.35;18.95;;;5.90;99.90;;;;;;5028160;28;20225;-79
2022/01/23 08:31:43;;;;;;;21.15;18.95;;;5.90;99.90;;;;;;5029984;28;20201;-79
2022/01/23 08:34:10;;;;;;;21.02;18.45;;;5.90;99.90;;;;;;5028183;28;20301;-79
2022/01/23 08:36:37;;;;;;;21.80;18.95;;;6.00;99.90;;;;;;5029547;28;20557;-79
2022/01/23 08:39:05;;;;;;;19.70;17.50;;;6.00;99.90;;;;;;5031055;28;20605;-79
2022/01/23 08:41:51;;;;;;;22.13;19.25;;;6.00;99.90;;;;;;5032208;28;20225;-78
2022/01/23 08:44:18;;;;;;;24.27;19.30;;;6.00;99.90;;;;;;5028370;28;20208;-78
2022/01/23 08:46:45;;;;;;;21.52;18.50;;;5.90;99.90;;;;;;5029400;28;20236;-79
2022/01/23 08:49:12;;;;;;;24.45;20.10;;;5.90;99.90;;;;;;5029951;28;20201;-79
2022/01/23 08:51:39;;;;;;;23.42;19.00;;;5.80;99.90;;;;;;5032622;28;20195;-78
2022/01/23 08:54:08;;;;;;;20.92;18.65;;;5.90;99.90;;;;;;5029970;28;20553;-79
2022/01/23 08:56:35;;;;;;;22.30;19.30;;;5.80;99.90;;;;;;5023915;28;20213;-79
2022/01/23 08:59:02;;;;;;;24.38;20.38;;;5.80;99.90;;;;;;5017491;28;20640;-81
2022/01/23 09:01:29;;;;;;;22.95;19.73;;;5.70;99.90;;;;;;5016354;28;20783;-80
2022/01/23 09:03:56;;;;;;;23.85;19.55;;;5.80;99.90;;;;;;5024033;28;20202;-80
2022/01/23 09:06:25;;;;;;;25.20;20.60;;;5.90;99.90;;;;;;5026674;28;20226;-80
2022/01/23 09:08:53;;;;;;;23.65;19.65;;;6.00;99.90;;;;;;5023783;28;20200;-80
2022/01/23 09:11:27;;;;;;;23.27;19.30;;;6.10;99.90;;;;;;5018997;28;20263;-80
2022/01/23 09:14:06;;;;;;;21.25;18.92;;;6.10;99.90;;;;;;5025524;28;20201;-78
2022/01/23 09:16:34;;;;;;;22.30;18.85;;;6.20;99.90;;;;;;5023139;28;20229;-80
2022/01/23 09:19:01;;;;;;;22.23;19.30;;;6.40;99.90;;;;;;5019595;28;20206;-80
2022/01/23 09:21:28;;;;;;;23.98;19.40;;;6.40;99.90;;;;;;5027694;28;20217;-80
2022/01/23 09:23:55;;;;;;;22.17;19.13;;;6.50;99.90;;;;;;5027374;28;20256;-80
2022/01/23 09:26:24;;;;;;;20.73;18.52;;;6.50;99.90;;;;;;5027780;28;20673;-80
2022/01/23 09:28:53;;;;;;;23.25;19.58;;;6.60;99.90;;;;;;5025550;28;20203;-86
2022/01/23 09:31:29;;;;;;;22.02;19.52;;;6.80;99.90;;;;;;5036972;28;20204;-80
2022/01/23 09:33:57;;;;;;;21.90;18.52;;;6.90;99.90;;;;;;5023646;28;20224;-79
2022/01/23 09:36:24;;;;;;;20.92;18.52;;;7.00;99.90;;;;;;5031634;28;20221;-80
2022/01/23 09:38:51;;;;;;;20.48;18.08;;;7.10;99.90;;;;;;5027210;28;20193;-80
2022/01/23 09:41:22;;;;;;;22.13;18.58;;;7.10;99.90;;;;;;5029624;28;20217;-80
2022/01/23 09:43:51;;;;;;;21.30;19.10;;;7.10;99.90;;;;;;5035982;28;20213;-80
2022/01/23 09:46:19;;;;;;;18.92;16.98;;;7.20;99.90;;;;;;5036562;28;20225;-78
2022/01/23 09:48:48;;;;;;;19.80;17.52;;;7.20;99.90;;;;;;5033741;28;20218;-78
2022/01/23 09:51:15;;;;;;;19.92;17.83;;;7.30;99.90;;;;;;5033313;28;20669;-78
2022/01/23 09:53:43;;;;;;;20.10;17.98;;;7.40;99.90;;;;;;5027247;28;20202;-78
2022/01/23 09:56:13;;;;;;;22.63;19.40;;;7.40;99.90;;;;;;5021645;28;20306;-78
2022/01/23 09:58:40;;;;;;;18.35;16.30;;;7.50;99.90;;;;;;5030564;28;20284;-78
2022/01/23 10:01:10;;;;;;;20.02;17.90;;;7.50;99.90;;;;;;5026360;28;20202;-78
2022/01/23 10:03:37;;;;;;;21.10;18.90;;;7.50;99.90;;;;;;5029872;28;20230;-78
2022/01/23 10:06:08;;;;;;;22.48;19.60;;;7.50;99.90;;;;;;5028155;28;20209;-81
2022/01/23 10:08:37;;;;;;;23.25;18.00;;;7.40;99.90;;;;;;5016169;28;20608;-82
2022/01/23 10:11:09;;;;;;;22.15;19.48;;;7.40;99.90;;;;;;5023463;28;20641;-80
2022/01/23 10:13:37;;;;;;;21.92;19.52;;;7.40;99.90;;;;;;5023294;28;20263;-79
2022/01/23 10:16:04;;;;;;;19.33;17.33;;;7.30;99.90;;;;;;5025932;28;20253;-79
2022/01/23 10:18:34;;;;;;;19.27;16.88;;;7.30;99.90;;;;;;5011994;28;20204;-79
2022/01/23 10:21:01;;;;;;;20.85;17.92;;;7.30;99.90;;;;;;5001921;28;20198;-79
2022/01/23 10:23:28;;;;;;;19.92;17.58;;;7.30;99.90;;;;;;5023457;28;20233;-79
2022/01/23 10:25:55;;;;;;;18.83;16.73;;;7.40;99.90;;;;;;5023732;28;20263;-80
2022/01/23 10:28:28;;;;;;;17.40;15.52;;;7.40;99.90;;;;;;5026187;28;20220;-80
2022/01/23 10:30:58;;;;;;;17.45;15.05;;;7.30;99.90;;;;;;5026935;28;20202;-79
2022/01/23 10:33:27;;;;;;;18.25;16.20;;;7.20;99.90;;;;;;5028228;28;20197;-79
2022/01/23 10:36:03;;;;;;;18.00;16.08;;;7.20;99.90;;;;;;5028858;28;20252;-80
2022/01/23 10:38:32;;;;;;;19.35;17.27;;;7.20;99.90;;;;;;5026292;28;20680;-79
2022/01/23 10:41:14;;;;;;;17.55;15.65;;;7.20;99.90;;;;;;5030853;28;20200;-79
2022/01/23 10:46:43;;;;;;;18.60;15.93;;;6.90;99.90;;;;;;5030864;28;20213;-80
2022/01/23 10:49:10;;;;;;;17.38;15.55;;;7.00;99.90;;;;;;5031673;28;20202;-79
2022/01/23 10:51:39;;;;;;;15.35;13.77;;;7.00;99.90;;;;;;5031771;28;20225;-80
2022/01/23 10:54:10;;;;;;;14.82;13.27;;;7.10;99.90;;;;;;5031238;28;20271;-79
2022/01/23 10:56:40;;;;;;;15.73;13.15;;;7.20;99.90;;;;;;5043530;28;20209;-80
2022/01/23 10:59:10;;;;;;;15.60;13.85;;;7.20;99.90;;;;;;5050669;28;20193;-80
2022/01/23 11:01:38;;;;;;;13.20;11.82;;;7.30;99.90;;;;;;5048619;28;20463;-80
2022/01/23 11:04:12;;;;;;;14.20;12.80;;;7.30;99.90;;;;;;5031521;28;20281;-79
2022/01/23 11:06:58;;;;;;;15.52;13.93;;;7.40;99.90;;;;;;5030820;28;20305;-79
2022/01/23 11:09:33;;;;;;;15.25;13.65;;;7.50;99.90;;;;;;5028160;28;20206;-79
2022/01/23 11:12:05;;;;;;;14.40;12.93;;;7.70;99.90;;;;;;5029103;28;20284;-79
2022/01/23 11:17:24;;;;;;;17.17;13.48;;;8.20;99.90;;;;;;5028455;28;20261;-80
2022/01/23 11:19:54;;;;;;;16.02;14.43;;;8.50;99.90;;;;;;5032812;28;20205;-79
2022/01/23 11:22:25;;;;;;;15.52;13.85;;;8.60;99.90;;;;;;5033743;28;20576;-79
2022/01/23 11:24:56;;;;;;;15.23;13.65;;;8.60;99.90;;;;;;5032168;28;20194;-79
2022/01/23 11:27:24;;;;;;;14.45;13.05;;;8.70;99.90;;;;;;5033970;28;20306;-79
2022/01/23 11:29:57;;;;;;;15.10;13.50;;;8.70;99.90;;;;;;5032255;28;20205;-79
2022/01/23 11:32:27;;;;;;;14.38;12.88;;;8.70;99.90;;;;;;5030645;28;20202;-83
2022/01/23 11:35:03;;;;;;;14.85;13.35;;;8.70;99.90;;;;;;5030570;28;20189;-79
2022/01/23 11:37:32;;;;;;;14.25;12.82;;;8.70;99.90;;;;;;5023531;28;20213;-79
2022/01/23 11:40:05;;;;;;;14.05;12.63;;;8.60;99.90;;;;;;5032013;28;20283;-79
2022/01/23 11:54:03;;;;;;;12.70;11.40;;;8.90;99.90;;;;;;5033364;28;20203;-79
2022/01/23 11:56:40;;;;;;;12.77;11.52;;;8.90;99.90;;;;;;5028347;28;20216;-80
2022/01/23 11:59:22;;;;;;;11.75;10.65;;;9.00;99.90;;;;;;5032834;28;21191;-82
2022/01/23 12:02:25;;;;;;;12.60;11.40;;;9.00;99.90;;;;;;5030928;28;20563;-82
2022/01/23 12:05:20;;;;;;;12.90;11.60;;;9.10;99.90;;;;;;5031491;28;20196;-82
2022/01/23 12:08:30;;;;;;;13.55;12.15;;;9.10;99.90;;;;;;5027604;28;20222;-82
2022/01/23 12:11:42;;;;;;;10.30;9.30;;;9.20;99.90;;;;;;5033122;28;20209;-82
2022/01/23 12:17:45;;;;;;;10.45;9.45;;;9.20;99.90;;;;;;5031627;28;20222;-81
2022/01/23 12:20:12;;;;;;;10.32;9.23;;;9.00;99.90;;;;;;5027716;28;20199;-78
2022/01/23 12:22:45;;;;;;;9.65;8.75;;;9.20;99.90;;;;;;5031124;28;20226;-82
2022/01/23 12:25:22;;;;;;;10.15;9.20;;;9.40;99.90;;;;;;5029383;28;20203;-79
2022/01/23 12:28:05;;;;;;;11.00;9.27;;;9.50;99.90;;;;;;5033915;28;20213;-87
2022/01/23 12:30:34;;;;;;;10.40;9.40;;;9.50;99.90;;;;;;5019924;28;20271;-86
2022/01/23 12:33:21;;;;;;;10.73;9.73;;;9.40;99.90;;;;;;5032001;28;20644;-78
2022/01/23 12:35:50;;;;;;;9.85;8.90;;;9.30;99.90;;;;;;5032194;28;20217;-85
2022/01/23 12:38:19;;;;;;;10.48;9.48;;;9.30;99.90;;;;;;5030471;28;20199;-80
2022/01/23 12:40:48;;;;;;;10.10;9.10;;;9.40;99.90;;;;;;5029826;28;20286;-80
2022/01/23 12:43:17;;;;;;;11.52;10.43;;;9.30;99.90;;;;;;5033445;28;20315;-80
2022/01/23 12:45:55;;;;;;;5.35;4.90;;;9.40;99.90;;;;;;5031738;28;20222;-79
2022/01/23 12:48:59;;;;;;;7.93;7.13;;;9.40;99.90;;;;;;5028372;28;20196;-80
2022/01/23 12:51:41;;;;;;;8.25;7.50;;;9.40;99.90;;;;;;5029696;28;20287;-80
2022/01/23 12:54:32;;;;;;;8.30;7.60;;;9.30;99.90;;;;;;5025317;28;20202;-79
2022/01/23 12:57:11;;;;;;;8.90;8.10;;;9.20;99.90;;;;;;5020488;28;20238;-78
2022/01/23 12:59:38;;;;;;;7.63;6.40;;;9.10;99.90;;;;;;5026359;28;20286;-79
2022/01/23 13:02:13;;;;;;;6.88;6.28;;;9.10;99.90;;;;;;5030543;28;20295;-80
2022/01/23 13:04:44;;;;;;;5.65;5.10;;;8.90;99.90;;;;;;5028853;28;20861;-79
2022/01/23 13:07:27;;;;;;;4.95;4.20;;;8.80;99.90;;;;;;5029222;28;20205;-79
2022/01/23 13:10:00;;;;;;;4.07;3.50;;;8.60;99.90;;;;;;5026034;28;20692;-78
2022/01/23 13:12:52;;;;;;;3.53;3.22;;;8.50;99.90;;;;;;5029507;28;20297;-79
2022/01/23 13:18:13;;;;;;;3.25;2.60;;;8.20;99.90;;;;;;4995271;28;20666;-79
2022/01/23 13:27:12;;;;;;;3.67;3.00;;;7.50;99.90;;;;;;5028553;28;20221;-78
2022/01/23 13:32:42;;;;;;;5.75;5.15;;;7.20;99.90;;;;;;5011602;28;20209;-78
2022/01/23 13:35:14;;;;;;;5.43;4.93;;;7.10;99.90;;;;;;5026114;28;20227;-79
2022/01/23 13:37:45;;;;;;;6.15;5.55;;;7.00;99.90;;;;;;5030314;28;20193;-78
2022/01/23 13:40:15;;;;;;;5.93;5.28;;;7.00;99.90;;;;;;5028779;28;20233;-78
2022/01/23 13:42:56;;;;;;;5.28;4.78;;;7.00;99.90;;;;;;5028820;28;20221;-76
2022/01/23 13:54:16;;;;;;;4.18;3.75;;;7.30;99.90;;;;;;5030350;28;20209;-79
2022/01/23 13:59:34;;;;;;;3.60;3.30;;;7.30;99.90;;;;;;5028985;28;20204;-81
2022/01/23 14:02:17;;;;;;;3.92;3.30;;;7.20;99.90;;;;;;5030617;28;20301;-81
2022/01/23 14:04:47;;;;;;;4.90;3.50;;;7.10;99.90;;;;;;5026953;28;20384;-80
2022/01/23 14:07:19;;;;;;;4.18;3.60;;;7.10;99.90;;;;;;5029520;28;20224;-80
2022/01/23 14:09:47;;;;;;;4.05;3.67;;;7.10;99.90;;;;;;5019280;28;20204;-81
2022/01/23 14:12:17;;;;;;;4.80;4.30;;;7.20;99.90;;;;;;5024379;28;20359;-81
2022/01/23 14:14:57;;;;;;;4.80;4.32;;;7.20;99.90;;;;;;5030983;28;20293;-80
2022/01/23 14:17:28;;;;;;;4.63;4.22;;;7.30;99.90;;;;;;5033934;28;20636;-81
2022/01/23 14:20:01;;;;;;;4.80;4.40;;;7.30;99.90;;;;;;5036787;28;20194;-81
2022/01/23 14:22:30;;;;;;;3.78;3.45;;;7.30;99.90;;;;;;5031209;28;20614;-80
2022/01/23 14:25:11;;;;;;;11.20;4.20;;;7.20;99.90;;;;;;5028321;28;20228;-80
2022/01/23 14:27:38;;;;;;;4.53;4.13;;;7.10;99.90;;;;;;5031387;28;20292;-80
2022/01/23 14:30:08;;;;;;;3.58;3.28;;;7.10;99.90;;;;;;5025302;28;20556;-78
2022/01/23 14:32:42;;;;;;;2.88;2.67;;;7.20;99.90;;;;;;5030155;28;20213;-79
2022/01/23 14:35:12;;;;;;;3.20;2.83;;;7.20;99.90;;;;;;5025340;28;20201;-80
2022/01/23 14:37:40;;;;;;;3.83;3.35;;;7.10;99.90;;;;;;5028141;28;20198;-78
2022/01/23 14:40:15;;;;;;;3.17;2.88;;;7.10;99.90;;;;;;5026416;28;20229;-80
2022/01/23 14:43:01;;;;;;;3.60;3.30;;;7.10;99.90;;;;;;5025815;28;20237;-79
2022/01/23 14:45:29;;;;;;;3.80;3.40;;;7.10;99.90;;;;;;5027958;28;20193;-78
2022/01/23 14:47:57;;;;;;;4.05;3.65;;;7.10;99.90;;;;;;5030202;28;20288;-79
2022/01/23 14:50:26;;;;;;;3.47;3.17;;;7.20;99.90;;;;;;5029277;28;20222;-78
2022/01/23 14:52:53;;;;;;;3.75;3.45;;;7.10;99.90;;;;;;5031858;28;20194;-79
2022/01/23 14:55:22;;;;;;;4.82;4.40;;;7.20;99.90;;;;;;5031944;28;20232;-78
2022/01/23 14:57:51;;;;;;;5.80;4.65;;;7.20;99.90;;;;;;5033927;28;20281;-79
2022/01/23 15:00:18;;;;;;;4.80;4.40;;;7.20;99.90;;;;;;5034804;28;20225;-80
2022/01/23 15:02:46;;;;;;;4.93;4.40;;;7.20;99.90;;;;;;5035476;28;20285;-77
2022/01/23 15:05:12;;;;;;;3.80;3.45;;;7.00;99.90;;;;;;5029174;28;20193;-79
2022/01/23 15:07:42;;;;;;;4.35;3.90;;;6.90;99.90;;;;;;5038666;28;20305;-79
2022/01/23 15:10:10;;;;;;;6.30;5.00;;;6.90;99.90;;;;;;5029904;28;20330;-79
2022/01/23 15:12:39;;;;;;;5.80;5.20;;;6.90;99.90;;;;;;5029493;28;20195;-79
2022/01/23 15:15:07;;;;;;;5.50;4.90;;;6.80;99.90;;;;;;5031956;28;20202;-80
2022/01/23 15:17:36;;;;;;;5.78;4.95;;;6.70;99.90;;;;;;5030309;28;20201;-80
2022/01/23 15:20:03;;;;;;;5.72;5.13;;;6.60;99.90;;;;;;5030005;28;20226;-80
2022/01/23 15:22:30;;;;;;;4.70;4.30;;;6.60;99.90;;;;;;5030881;28;20199;-77
2022/01/23 15:24:58;;;;;;;5.25;4.75;;;6.50;99.90;;;;;;5033659;28;20225;-77
2022/01/23 15:27:25;;;;;;;5.85;5.18;;;6.50;99.90;;;;;;5029473;28;20210;-77
2022/01/23 15:29:54;;;;;;;6.32;5.72;;;6.50;99.90;;;;;;5029638;28;20311;-81
2022/01/23 15:32:21;;;;;;;6.43;5.55;;;6.60;99.90;;;;;;5028600;28;20201;-79
2022/01/23 15:34:48;;;;;;;5.38;4.85;;;6.60;99.90;;;;;;5028203;28;20288;-78
2022/01/23 15:37:15;;;;;;;4.60;4.18;;;6.70;99.90;;;;;;5025542;28;20208;-79
2022/01/23 15:39:43;;;;;;;4.50;3.80;;;6.70;99.90;;;;;;5024494;28;20220;-79
2022/01/23 15:42:10;;;;;;;5.47;3.97;;;6.70;99.90;;;;;;5024462;28;20221;-79
2022/01/23 15:44:39;;;;;;;3.60;3.30;;;6.70;99.90;;;;;;5026391;28;20221;-79
2022/01/23 15:47:07;;;;;;;3.50;3.20;;;6.70;99.90;;;;;;5027110;28;20236;-78